createdAt,value
2022-10-18T00:03:55.150Z,14.07
2022-10-18T00:09:09.856Z,14.03
2022-10-18T00:14:18.991Z,13.92
2022-10-18T00:19:29.187Z,13.74
2022-10-18T00:24:37.593Z,13.62
2022-10-18T00:29:45.938Z,13.55
2022-10-18T00:34:54.090Z,13.49
2022-10-18T00:40:01.668Z,13.35
2022-10-18T00:45:20.643Z,13.20
2022-10-18T00:50:31.318Z,13.08
2022-10-18T00:55:39.237Z,12.98
2022-10-18T01:00:47.371Z,12.91
2022-10-18T01:05:55.362Z,12.84
2022-10-18T01:11:39.179Z,12.79
2022-10-18T01:16:53.852Z,12.73
2022-10-18T01:22:10.068Z,12.70
2022-10-18T01:27:35.941Z,12.66
2022-10-18T01:32:49.022Z,12.57
2022-10-18T01:38:03.132Z,12.53
2022-10-18T01:43:16.001Z,12.53
2022-10-18T01:48:26.092Z,12.52
2022-10-18T01:53:39.905Z,12.52
2022-10-18T01:58:56.700Z,12.46
2022-10-18T02:04:20.951Z,12.40
2022-10-18T02:09:39.100Z,12.35
2022-10-18T02:14:51.210Z,12.29
2022-10-18T02:20:01.788Z,12.18
2022-10-18T02:25:13.256Z,12.09
2022-10-18T02:30:24.544Z,12.05
2022-10-18T02:35:36.902Z,12.04
2022-10-18T02:40:44.930Z,11.99
2022-10-18T02:45:53.335Z,11.91
2022-10-18T02:51:49.071Z,11.83
2022-10-18T02:56:56.582Z,11.79
2022-10-18T03:02:04.319Z,11.81
2022-10-18T03:07:12.261Z,11.89
2022-10-18T03:12:21.083Z,11.97
2022-10-18T03:17:27.325Z,12.05
2022-10-18T03:22:35.032Z,12.16
2022-10-18T03:27:43.803Z,12.28
2022-10-18T03:32:51.642Z,12.35
2022-10-18T03:38:00.080Z,12.42
2022-10-18T03:43:10.059Z,12.48
2022-10-18T03:48:19.911Z,12.57
2022-10-18T03:53:28.621Z,12.70
2022-10-18T03:58:36.856Z,12.83
2022-10-18T04:03:49.986Z,12.94
2022-10-18T04:08:59.812Z,13.03
2022-10-18T04:14:08.706Z,13.16
2022-10-18T04:19:16.754Z,13.26
2022-10-18T04:24:26.052Z,13.29
2022-10-18T04:29:34.130Z,13.28
2022-10-18T04:39:53.600Z,13.38
2022-10-18T04:45:01.672Z,13.42
2022-10-18T04:50:08.126Z,13.45
2022-10-18T04:55:16.370Z,13.49
2022-10-18T05:00:24.462Z,13.53
2022-10-18T05:05:49.586Z,13.54
2022-10-18T05:10:59.707Z,13.56
2022-10-18T05:16:07.642Z,13.58
2022-10-18T05:21:16.277Z,13.62
2022-10-18T05:26:24.953Z,13.67
2022-10-18T05:31:32.275Z,13.71
2022-10-18T05:36:42.801Z,13.74
2022-10-18T05:41:54.162Z,13.78
2022-10-18T05:47:03.222Z,13.87
2022-10-18T05:52:38.348Z,13.98
2022-10-18T05:57:55.362Z,14.03
2022-10-18T06:03:02.699Z,14.09
2022-10-18T06:08:10.390Z,14.17
2022-10-18T06:13:21.931Z,14.24
2022-10-18T06:18:30.655Z,14.30
2022-10-18T06:24:27.185Z,14.33
2022-10-18T06:29:36.418Z,14.41
2022-10-18T06:34:44.046Z,14.48
2022-10-18T06:39:54.012Z,14.51
2022-10-18T06:45:03.760Z,14.55
2022-10-18T06:50:11.902Z,14.57
2022-10-18T06:55:20.021Z,14.53
2022-10-18T07:00:27.639Z,14.51
2022-10-18T07:05:35.357Z,14.56
2022-10-18T07:10:42.923Z,14.64
2022-10-18T07:16:10.621Z,14.76
2022-10-18T07:21:23.287Z,14.94
2022-10-18T07:26:33.207Z,15.08
2022-10-18T07:31:41.310Z,15.17
2022-10-18T07:36:48.535Z,15.25
2022-10-18T07:41:55.844Z,15.34
2022-10-18T07:47:02.976Z,15.44
2022-10-18T07:52:10.155Z,15.52
2022-10-18T07:57:17.584Z,15.56
2022-10-18T08:02:25.547Z,15.58
2022-10-18T08:07:36.060Z,15.66
2022-10-18T08:12:43.378Z,15.79
2022-10-18T08:17:50.523Z,15.90
2022-10-18T08:23:00.299Z,15.96
2022-10-18T08:28:09.631Z,16.02
2022-10-18T08:33:16.938Z,16.11
2022-10-18T08:38:25.839Z,16.18
2022-10-18T08:43:39.795Z,16.22
2022-10-18T08:48:49.850Z,16.29
2022-10-18T08:54:05.441Z,16.37
2022-10-18T08:59:15.585Z,16.46
2022-10-18T09:04:38.026Z,16.50
2022-10-18T09:09:54.928Z,16.54
2022-10-18T09:15:11.598Z,16.58
2022-10-18T09:20:25.430Z,16.65
2022-10-18T09:25:45.863Z,16.74
2022-10-18T09:31:01.703Z,16.78
2022-10-18T09:36:15.472Z,16.80
2022-10-18T09:41:26.378Z,16.82
2022-10-18T09:46:38.686Z,16.85
2022-10-18T09:51:47.374Z,16.81
2022-10-18T09:57:03.625Z,16.79
2022-10-18T10:02:16.579Z,16.79
2022-10-18T10:07:31.182Z,16.79
2022-10-18T10:12:42.448Z,16.78
2022-10-18T10:17:58.598Z,16.80
2022-10-18T10:28:29.352Z,16.92
2022-10-18T10:33:41.536Z,16.93
2022-10-18T10:39:03.147Z,16.86
2022-10-18T10:44:21.453Z,16.79
2022-10-18T10:49:41.703Z,16.76
2022-10-18T10:54:52.198Z,16.76
2022-10-18T11:00:04.246Z,16.74
2022-10-18T11:05:25.978Z,16.69
2022-10-18T11:10:49.004Z,16.63
2022-10-18T11:16:02.125Z,16.57
2022-10-18T11:21:12.014Z,16.53
2022-10-18T11:26:40.972Z,16.47
2022-10-18T11:31:58.236Z,16.39
2022-10-18T11:37:28.140Z,16.34
2022-10-18T11:42:43.540Z,16.36
2022-10-18T11:47:57.942Z,16.40
2022-10-18T11:53:16.930Z,16.41
2022-10-18T11:58:44.094Z,16.39
2022-10-18T12:04:01.412Z,16.36
2022-10-18T12:09:24.787Z,16.34
2022-10-18T12:14:37.958Z,16.33
2022-10-18T12:19:47.322Z,16.34
2022-10-18T12:24:55.205Z,16.37
2022-10-18T12:30:16.085Z,16.35
2022-10-18T12:35:35.226Z,16.33
2022-10-18T12:40:52.907Z,16.28
2022-10-18T12:52:29.103Z,16.32
2022-10-18T12:58:20.362Z,16.30
2022-10-18T13:04:04.878Z,16.29
2022-10-18T13:09:22.938Z,16.30
2022-10-18T13:14:59.232Z,16.28
2022-10-18T13:20:27.510Z,16.22
2022-10-18T13:25:47.408Z,16.13
2022-10-18T13:31:01.612Z,16.01
2022-10-18T13:36:26.624Z,15.94
2022-10-18T13:41:57.426Z,15.92
2022-10-18T13:47:37.045Z,15.88
2022-10-18T13:53:17.187Z,15.85
2022-10-18T13:58:48.992Z,15.86
2022-10-18T14:04:38.483Z,15.87
2022-10-18T14:09:52.521Z,15.87
2022-10-18T14:15:09.279Z,15.80
2022-10-18T14:20:24.779Z,15.68
2022-10-18T14:25:39.466Z,15.58
2022-10-18T14:31:07.733Z,15.56
2022-10-18T14:36:38.630Z,15.57
2022-10-18T14:41:59.791Z,15.59
2022-10-18T14:53:43.972Z,15.48
2022-10-18T14:59:25.450Z,15.48
2022-10-18T15:05:06.979Z,15.51
2022-10-18T15:17:57.774Z,15.46
2022-10-18T15:23:33.348Z,15.42
2022-10-18T15:28:52.883Z,15.37
2022-10-18T15:34:12.765Z,15.36
2022-10-18T15:39:35.823Z,15.34
2022-10-18T15:44:55.297Z,15.30
2022-10-18T15:50:06.293Z,15.30
2022-10-18T15:55:50.343Z,15.33
2022-10-18T16:01:05.575Z,15.31
2022-10-18T16:06:25.169Z,15.22
2022-10-18T16:11:37.801Z,15.10
2022-10-18T16:16:46.597Z,15.00
2022-10-18T16:21:55.291Z,14.96
2022-10-18T16:27:06.390Z,14.95
2022-10-18T16:32:23.277Z,14.94
2022-10-18T16:38:44.452Z,14.90
2022-10-18T16:43:53.387Z,14.86
2022-10-18T16:49:04.244Z,14.87
2022-10-18T16:54:12.498Z,14.92
2022-10-18T16:59:27.049Z,14.94
2022-10-18T17:04:37.669Z,14.88
2022-10-18T17:09:45.555Z,14.83
2022-10-18T17:14:55.051Z,14.81
2022-10-18T17:20:05.482Z,14.78
2022-10-18T17:25:27.523Z,14.73
2022-10-18T17:30:44.376Z,14.63
2022-10-18T17:35:53.744Z,14.55
2022-10-18T17:41:01.544Z,14.54
2022-10-18T17:46:12.243Z,14.53
2022-10-18T17:51:20.502Z,14.52
2022-10-18T17:56:34.863Z,14.51
2022-10-18T18:01:43.117Z,14.46
2022-10-18T18:06:54.565Z,14.38
2022-10-18T18:12:04.434Z,14.36
2022-10-18T18:17:12.749Z,14.36
2022-10-18T18:22:32.681Z,14.36
2022-10-18T18:27:50.738Z,14.34
2022-10-18T18:33:08.467Z,14.29
2022-10-18T18:38:21.400Z,14.19
2022-10-18T18:43:30.217Z,14.08
2022-10-18T18:48:43.211Z,14.00
2022-10-18T18:53:59.301Z,13.92
2022-10-18T18:59:09.291Z,13.79
2022-10-18T19:04:24.474Z,13.64
2022-10-18T19:09:35.822Z,13.57
2022-10-18T19:14:49.999Z,13.51
2022-10-18T19:20:09.003Z,13.46
2022-10-18T19:25:58.576Z,13.41
2022-10-18T19:31:18.816Z,13.34
2022-10-18T19:36:29.284Z,13.30
2022-10-18T19:41:37.562Z,13.21
2022-10-18T19:47:40.724Z,13.10
2022-10-18T20:15:34.893Z,12.60
2022-10-18T20:28:30.966Z,12.29
2022-10-18T20:34:05.960Z,12.16
2022-10-18T20:39:17.911Z,12.00
2022-10-18T20:44:31.044Z,11.88
2022-10-18T20:49:41.390Z,11.79
2022-10-18T20:54:51.817Z,11.74
2022-10-18T21:00:10.661Z,11.69
2022-10-18T21:05:24.458Z,11.57
2022-10-18T21:10:39.427Z,11.42
2022-10-18T21:16:02.761Z,11.30
2022-10-18T21:21:19.196Z,11.17
2022-10-18T21:26:41.445Z,11.06
2022-10-18T21:45:01.335Z,11.05
2022-10-18T21:50:17.385Z,11.11
2022-10-18T22:03:13.786Z,11.08
2022-10-18T22:08:36.895Z,11.07
2022-10-18T22:13:51.241Z,11.08
2022-10-18T22:19:44.371Z,11.05
2022-10-18T22:26:00.698Z,10.98
2022-10-18T22:32:08.769Z,10.97
2022-10-18T22:38:18.947Z,11.03
2022-10-18T22:43:33.166Z,11.12
2022-10-18T22:48:49.791Z,11.18
2022-10-18T22:53:58.643Z,11.26
2022-10-18T22:59:25.840Z,11.26
2022-10-18T23:05:27.937Z,11.24
2022-10-18T23:10:46.303Z,11.26
2022-10-18T23:16:26.385Z,11.28
2022-10-18T23:22:18.239Z,11.27
2022-10-18T23:27:50.426Z,11.19
2022-10-18T23:33:19.084Z,11.08
2022-10-18T23:38:30.913Z,11.06
2022-10-18T23:43:50.635Z,11.05
2022-10-18T23:49:29.155Z,10.97
2022-10-18T23:55:11.875Z,10.83
